x

South Kodiak - 310nm Ssw Of Kodiak, Ak (46066) Wave Buoy

12:50am - Sat 19th Aug 2017 All times are UTC.

  • Sig Wave height 7.9ft
  • Swell Direction
  • Peak Period 9s
  • Average Period 6s
  • Wind
    18mph, 22mph gusts
  • Sea Temp 55°f
  • Air Temp 55°f
  • Sea Pressure 1015.2mb

More Historic Weather Station data

Upgrade to MSW Pro to gain access to the past 30 days of data for over 8000 Wavebouys and Weather Stations around the globe.

Join

Comparision Forecast

View Surf forecast
   
Sat 08/19 12:50am 8ft 9s 6s 18 22 mph 1015.2mb 55f 55f
Fri 08/18 11:50pm 8.5ft 9s 7s 20 25 mph 1015.4mb 55f 55f
9:50pm 8ft 8s 6s 20 25 mph 1015.2mb 55f 55f
8:50pm 7.5ft 7s 6s 20 25 mph 1015.3mb 55f 55f
7:50pm 7.5ft 8s 6s 20 25 mph 1015mb 55f 55f
6:50pm 8ft 7s 6s 22 25 mph 1014.7mb 55f 55f
5:50pm 9ft 7s 6s 22 27 mph 1014.5mb 55f 54f
4:50pm 9ft 7s 6s 18 22 mph 1014.5mb 55f 53f
3:50pm 9ft 9s 6s 20 25 mph 1014.3mb 55f 54f
2:50pm 10.5ft 8s 7s 22 27 mph 1014.3mb 55f 53f
1:50pm 10.5ft 10s 7s 22 25 mph 1014.3mb 55f 53f
12:50pm 10ft 10s 7s 22 27 mph 1013.8mb 55f 54f
11:50am 10ft 10s 7s 20 25 mph 1013.6mb 55f 55f
10:50am 9ft 9s 7s 18 22 mph 1013.5mb 55f 55f
9:50am 10ft 10s 7s 18 22 mph 1013.3mb 55f 55f
8:50am 10ft 10s 7s 18 22 mph 1013mb 55f 55f
7:50am 8.5ft 10s 6s 22 27 mph 1012.9mb 55f 55f
6:50am 9.5ft 10s 7s 22 27 mph 1012.7mb 55f 55f
5:50am 9ft 8s 6s 18 22 mph 1012.2mb 55f 54f
4:50am 9.5ft 9s 6s 20 25 mph 1012mb 55f 55f
3:50am 11ft 10s 7s 20 27 mph 1011.5mb 55f 55f
2:50am 10.5ft 9s 7s 22 27 mph 1011.1mb 55f 55f
1:50am 11ft 10s 7s 20 27 mph 1011mb 55f 56f
12:50am 10.5ft 9s 7s 22 27 mph 1010.6mb 55f 56f
Thu 08/17 11:50pm 11.5ft 9s 7s 22 27 mph 1010.4mb 55f 56f
10:50pm 10.5ft 9s 7s 25 34 mph 1010.1mb 55f 56f
9:50pm 11ft 10s 7s 25 29 mph 1009.7mb 55f 56f
8:50pm 10ft 9s 6s 25 31 mph 1009.2mb 55f 56f
7:50pm 9.5ft 9s 6s 27 31 mph 1008.7mb 55f 56f
6:50pm 10ft 9s 7s 22 27 mph 1008.3mb 55f 54f
5:50pm 10ft 8s 7s 20 25 mph 1008.2mb 55f 55f
4:50pm 9ft 9s 6s 22 29 mph 1008.1mb 56f 54f
3:50pm 9ft 9s 6s 20 25 mph 1008.1mb 56f 55f
2:50pm 9.5ft 8s 7s 20 25 mph 1007.7mb 56f 55f
1:50pm 10ft 8s 7s 22 25 mph 1007.5mb 56f 56f
12:50pm 8ft 8s 6s 22 25 mph 1007.3mb 56f 56f
11:50am 8ft 9s 6s 20 25 mph 1006.9mb 56f 55f
10:50am 7.5ft 8s 6s 18 22 mph 1007.2mb 56f 54f
9:50am 7.5ft 8s 6s 18 22 mph 1007.1mb 56f 55f
8:50am 8ft 8s 6s 16 20 mph 1007mb 56f 55f
7:50am 9ft 8s 6s 22 25 mph 1006.5mb 56f 54f
6:50am 8.5ft 7s 6s 20 25 mph 1006.2mb 56f 53f
5:50am 8.5ft 8s 6s 22 27 mph 1006.3mb 56f 54f
4:50am 8.5ft 8s 6s 22 27 mph 1006.6mb 56f 54f
3:50am 8.5ft 8s 6s 20 27 mph 1007mb 56f 54f
2:50am 8ft 8s 6s 22 27 mph 1007.4mb 56f 54f
1:50am 8.5ft 7s 6s 22 27 mph 1007.9mb 56f 55f
12:50am 7.5ft 7s 6s 22 27 mph 1008.4mb 56f 55f
Wed 08/16 11:50pm 7ft 6s 6s 22 25 mph 1008.8mb 56f 55f
10:50pm 7ft 6s 6s 22 25 mph 1009.6mb 56f 54f
9:50pm 7ft 6s 6s 22 25 mph 1010mb 56f 55f
8:50pm 6.5ft 7s 6s 22 25 mph 1010.2mb 56f 55f
7:50pm 7ft 10s 6s 22 25 mph 1010.3mb 56f 55f
6:50pm 7.5ft 10s 6s 20 27 mph 1010.6mb 56f 54f
5:50pm 7ft 11s 6s 18 25 mph 1010.7mb 56f 52f
4:50pm 7.5ft 10s 6s 20 25 mph 1010.6mb 56f 55f
3:50pm 7.5ft 10s 6s 18 22 mph 1010.7mb 56f 55f
2:50pm 7ft 10s 6s 18 22 mph 1010.8mb 56f 55f
1:50pm 7ft 10s 6s 20 22 mph 1010.8mb 56f 55f
12:50pm 6.5ft 9s 6s 20 22 mph 1011.1mb 56f 55f
11:50am 6.5ft 10s 6s 18 22 mph 1011.3mb 56f 54f
10:50am 6ft 11s 6s 20 25 mph 1011.3mb 56f 55f
9:50am 6ft 11s 6s 18 22 mph 1011.8mb 56f 55f
8:50am 6.5ft 10s 6s 18 22 mph 1012.1mb 56f 55f
7:50am 7ft 10s 6s 18 22 mph 1012.2mb 56f 55f
6:50am 7ft 11s 6s 18 22 mph 1012.3mb 56f 55f
5:50am 9ft 11s 7s 20 22 mph 1011.9mb 56f 56f
4:50am 8ft 11s 7s 16 20 mph 1011.6mb 56f 56f
3:50am 9ft 11s 7s 16 20 mph 1011.8mb 56f 56f
2:50am 8ft 11s 7s 16 18 mph 1011.9mb 56f 56f
1:50am 8ft 11s 7s 16 18 mph 1012.1mb 56f 56f
12:50am 8ft 11s 7s 16 18 mph 1012mb 56f 56f
Tue 08/15 11:50pm 8ft 10s 7s 13 16 mph 1011.9mb 56f 56f
10:50pm 7ft 11s 7s 13 18 mph 1011.6mb 56f 55f
9:50pm 8ft 11s 7s 13 16 mph 1011.5mb 56f 55f
8:50pm 8ft 11s 7s 16 20 mph 1011.5mb 56f 55f
7:50pm 8.5ft 11s 7s 16 20 mph 1011.1mb 56f 55f
6:50pm 9ft 10s 7s 16 20 mph 1010.4mb 56f 55f
5:50pm 9ft 11s 7s 13 16 mph 1009.8mb 56f 55f
4:50pm 11ft 11s 8s 13 18 mph 1008.6mb 56f 56f
3:50pm 10ft 11s 7s 16 20 mph 1008.1mb 56f 55f
2:50pm 9ft 11s 7s 13 18 mph 1006.6mb 56f 56f
1:50pm 9.5ft 10s 7s 9 11 mph 1005.7mb 56f 56f
12:50pm 9ft 11s 7s 16 18 mph 1005.3mb 56f 56f
11:50am 7.5ft 12s 7s 16 20 mph 1004.9mb 56f 56f
10:50am 7ft 11s 7s 18 22 mph 1004.4mb 56f 56f
9:50am 7ft 12s 7s 18 20 mph 1004.3mb 56f 57f
8:50am 6.5ft 11s 7s 18 22 mph 1004mb 56f 57f
7:50am 7.5ft 11s 7s 16 20 mph 1003.5mb 56f 57f
6:50am 8.5ft 11s 7s 16 20 mph 1002.4mb 56f 57f
5:50am 10ft 11s 7s 18 20 mph 1001.7mb 56f 57f
4:50am 10ft 11s 7s 16 18 mph 1000.6mb 56f 57f
3:50am 11ft 11s 7s 18 20 mph 1000.4mb 56f 57f
2:50am 10.5ft 11s 8s 18 20 mph 1000.7mb 56f 57f